sensor_id;sensor_type;location;lat;lon;timestamp;pressure;altitude;pressure_sealevel;temperature;humidity
37878;BME280;23715;53.652;8.516;2022-08-21T00:04:06;101693.94;;;19.87;100.00
37878;BME280;23715;53.652;8.516;2022-08-21T00:09:08;101694.71;;;20.20;100.00
37878;BME280;23715;53.652;8.516;2022-08-21T00:14:11;101680.83;;;20.42;100.00
37878;BME280;23715;53.652;8.516;2022-08-21T00:19:12;101674.73;;;20.32;100.00
37878;BME280;23715;53.652;8.516;2022-08-21T00:24:13;101675.62;;;20.12;100.00
37878;BME280;23715;53.652;8.516;2022-08-21T00:29:14;101673.48;;;19.79;100.00
37878;BME280;23715;53.652;8.516;2022-08-21T00:34:14;101662.69;;;19.94;100.00
37878;BME280;23715;53.652;8.516;2022-08-21T00:39:14;101662.37;;;19.56;100.00
37878;BME280;23715;53.652;8.516;2022-08-21T00:44:15;101659.81;;;19.46;100.00
37878;BME280;23715;53.652;8.516;2022-08-21T00:49:16;101654.20;;;19.39;100.00
37878;BME280;23715;53.652;8.516;2022-08-21T00:54:18;101661.85;;;19.19;100.00
37878;BME280;23715;53.652;8.516;2022-08-21T00:59:21;101667.66;;;19.20;100.00
37878;BME280;23715;53.652;8.516;2022-08-21T01:04:23;101661.81;;;18.95;100.00
37878;BME280;23715;53.652;8.516;2022-08-21T01:09:24;101664.57;;;19.03;100.00
37878;BME280;23715;53.652;8.516;2022-08-21T01:14:25;101661.53;;;19.47;100.00
37878;BME280;23715;53.652;8.516;2022-08-21T01:19:25;101661.53;;;19.47;100.00
37878;BME280;23715;53.652;8.516;2022-08-21T01:24:26;101659.66;;;19.43;100.00
37878;BME280;23715;53.652;8.516;2022-08-21T01:29:36;101657.76;;;19.11;100.00
37878;BME280;23715;53.652;8.516;2022-08-21T01:34:38;101664.37;;;18.92;100.00
37878;BME280;23715;53.652;8.516;2022-08-21T01:39:40;101662.80;;;18.85;100.00
37878;BME280;23715;53.652;8.516;2022-08-21T01:44:41;101669.87;;;19.29;100.00
37878;BME280;23715;53.652;8.516;2022-08-21T01:49:42;101669.02;;;19.33;100.00
37878;BME280;23715;53.652;8.516;2022-08-21T01:54:43;101667.00;;;19.43;100.00
37878;BME280;23715;53.652;8.516;2022-08-21T01:59:44;101668.01;;;19.38;100.00
37878;BME280;23715;53.652;8.516;2022-08-21T02:04:44;101666.98;;;19.51;100.00
37878;BME280;23715;53.652;8.516;2022-08-21T02:09:44;101664.24;;;19.35;100.00
37878;BME280;23715;53.652;8.516;2022-08-21T02:14:45;101661.19;;;19.42;100.00
37878;BME280;23715;53.652;8.516;2022-08-21T02:19:45;101653.69;;;19.56;100.00
37878;BME280;23715;53.652;8.516;2022-08-21T02:24:45;101655.73;;;19.38;100.00
37878;BME280;23715;53.652;8.516;2022-08-21T02:29:45;101646.17;;;19.50;100.00
37878;BME280;23715;53.652;8.516;2022-08-21T02:34:46;101645.16;;;19.51;100.00
37878;BME280;23715;53.652;8.516;2022-08-21T02:39:48;101642.77;;;19.40;100.00
37878;BME280;23715;53.652;8.516;2022-08-21T02:44:48;101638.84;;;19.38;100.00
37878;BME280;23715;53.652;8.516;2022-08-21T02:49:48;101645.13;;;19.14;100.00
37878;BME280;23715;53.652;8.516;2022-08-21T02:54:49;101641.53;;;18.89;100.00
37878;BME280;23715;53.652;8.516;2022-08-21T02:59:49;101635.95;;;19.23;100.00
37878;BME280;23715;53.652;8.516;2022-08-21T03:04:49;101625.72;;;19.13;100.00
37878;BME280;23715;53.652;8.516;2022-08-21T03:09:50;101627.77;;;19.15;100.00
37878;BME280;23715;53.652;8.516;2022-08-21T03:14:50;101621.62;;;19.21;100.00
37878;BME280;23715;53.652;8.516;2022-08-21T03:19:50;101613.61;;;19.20;100.00
37878;BME280;23715;53.652;8.516;2022-08-21T03:24:50;101612.45;;;19.18;100.00
37878;BME280;23715;53.652;8.516;2022-08-21T03:29:51;101605.44;;;19.16;100.00
37878;BME280;23715;53.652;8.516;2022-08-21T03:34:51;101606.63;;;19.21;100.00
37878;BME280;23715;53.652;8.516;2022-08-21T03:39:51;101609.04;;;19.16;100.00
37878;BME280;23715;53.652;8.516;2022-08-21T03:44:52;101611.58;;;19.14;100.00
37878;BME280;23715;53.652;8.516;2022-08-21T03:49:52;101616.35;;;19.03;100.00
37878;BME280;23715;53.652;8.516;2022-08-21T03:54:52;101618.36;;;18.81;100.00
37878;BME280;23715;53.652;8.516;2022-08-21T03:59:53;101623.93;;;18.75;100.00
37878;BME280;23715;53.652;8.516;2022-08-21T04:04:53;101620.16;;;18.72;100.00
37878;BME280;23715;53.652;8.516;2022-08-21T04:09:54;101617.73;;;18.52;100.00
37878;BME280;23715;53.652;8.516;2022-08-21T04:14:54;101620.33;;;18.16;100.00
37878;BME280;23715;53.652;8.516;2022-08-21T04:19:55;101610.27;;;17.60;100.00
37878;BME280;23715;53.652;8.516;2022-08-21T04:24:55;101613.88;;;17.42;100.00
37878;BME280;23715;53.652;8.516;2022-08-21T04:29:56;101618.75;;;17.34;100.00
37878;BME280;23715;53.652;8.516;2022-08-21T04:35:03;101621.11;;;17.33;100.00
37878;BME280;23715;53.652;8.516;2022-08-21T04:40:04;101614.39;;;17.90;100.00
37878;BME280;23715;53.652;8.516;2022-08-21T04:45:06;101614.03;;;18.66;100.00
37878;BME280;23715;53.652;8.516;2022-08-21T04:50:06;101615.50;;;19.19;100.00
37878;BME280;23715;53.652;8.516;2022-08-21T04:55:07;101618.03;;;19.66;100.00
37878;BME280;23715;53.652;8.516;2022-08-21T05:00:07;101617.69;;;19.65;100.00
37878;BME280;23715;53.652;8.516;2022-08-21T05:05:08;101622.08;;;19.99;100.00
37878;BME280;23715;53.652;8.516;2022-08-21T05:10:09;101618.58;;;20.25;100.00
37878;BME280;23715;53.652;8.516;2022-08-21T05:15:11;101616.87;;;20.68;100.00
37878;BME280;23715;53.652;8.516;2022-08-21T05:20:13;101616.86;;;20.95;100.00
37878;BME280;23715;53.652;8.516;2022-08-21T05:25:14;101615.66;;;21.21;100.00
37878;BME280;23715;53.652;8.516;2022-08-21T05:30:14;101602.70;;;21.34;100.00
37878;BME280;23715;53.652;8.516;2022-08-21T05:35:14;101612.08;;;21.58;100.00
37878;BME280;23715;53.652;8.516;2022-08-21T05:40:15;101611.65;;;21.84;100.00
37878;BME280;23715;53.652;8.516;2022-08-21T05:45:15;101614.34;;;21.89;100.00
37878;BME280;23715;53.652;8.516;2022-08-21T05:50:16;101621.01;;;22.05;100.00
37878;BME280;23715;53.652;8.516;2022-08-21T05:55:16;101613.27;;;22.09;100.00
37878;BME280;23715;53.652;8.516;2022-08-21T06:00:17;101612.05;;;22.26;100.00
37878;BME280;23715;53.652;8.516;2022-08-21T06:05:18;101598.23;;;22.34;100.00
37878;BME280;23715;53.652;8.516;2022-08-21T06:10:17;101598.23;;;22.34;100.00
37878;BME280;23715;53.652;8.516;2022-08-21T06:15:18;101611.77;;;22.61;100.00
37878;BME280;23715;53.652;8.516;2022-08-21T06:20:18;101597.95;;;22.80;100.00
37878;BME280;23715;53.652;8.516;2022-08-21T06:25:19;101604.59;;;22.93;100.00
37878;BME280;23715;53.652;8.516;2022-08-21T06:30:20;101609.11;;;23.00;100.00
37878;BME280;23715;53.652;8.516;2022-08-21T06:35:20;101606.67;;;23.16;100.00
37878;BME280;23715;53.652;8.516;2022-08-21T06:40:20;101605.80;;;23.27;100.00
37878;BME280;23715;53.652;8.516;2022-08-21T06:45:21;101605.27;;;23.49;100.00
37878;BME280;23715;53.652;8.516;2022-08-21T06:50:22;101608.56;;;23.66;100.00
37878;BME280;23715;53.652;8.516;2022-08-21T06:55:22;101606.86;;;23.54;100.00
37878;BME280;23715;53.652;8.516;2022-08-21T07:00:23;101607.87;;;23.85;100.00
37878;BME280;23715;53.652;8.516;2022-08-21T07:05:26;101603.91;;;23.94;100.00
37878;BME280;23715;53.652;8.516;2022-08-21T07:10:27;101594.01;;;24.24;100.00
37878;BME280;23715;53.652;8.516;2022-08-21T07:15:29;101592.63;;;24.48;100.00
37878;BME280;23715;53.652;8.516;2022-08-21T07:20:31;101582.28;;;24.74;100.00
37878;BME280;23715;53.652;8.516;2022-08-21T07:25:32;101581.77;;;24.82;100.00
37878;BME280;23715;53.652;8.516;2022-08-21T07:30:32;101585.70;;;25.03;100.00
37878;BME280;23715;53.652;8.516;2022-08-21T07:35:33;101592.80;;;25.15;100.00
37878;BME280;23715;53.652;8.516;2022-08-21T07:40:33;101586.61;;;25.24;100.00
37878;BME280;23715;53.652;8.516;2022-08-21T07:45:34;101594.31;;;25.18;100.00
37878;BME280;23715;53.652;8.516;2022-08-21T07:50:34;101591.46;;;25.42;100.00
37878;BME280;23715;53.652;8.516;2022-08-21T07:55:35;101589.44;;;25.53;100.00
37878;BME280;23715;53.652;8.516;2022-08-21T08:00:35;101589.52;;;25.76;100.00
37878;BME280;23715;53.652;8.516;2022-08-21T08:05:36;101597.91;;;25.78;100.00
37878;BME280;23715;53.652;8.516;2022-08-21T08:10:38;101593.66;;;25.96;100.00
37878;BME280;23715;53.652;8.516;2022-08-21T08:15:39;101593.77;;;25.92;100.00
37878;BME280;23715;53.652;8.516;2022-08-21T08:20:40;101588.56;;;25.93;100.00
37878;BME280;23715;53.652;8.516;2022-08-21T08:25:40;101586.22;;;26.03;100.00
37878;BME280;23715;53.652;8.516;2022-08-21T08:30:41;101592.57;;;25.97;100.00
37878;BME280;23715;53.652;8.516;2022-08-21T08:35:43;101591.27;;;26.13;100.00
37878;BME280;23715;53.652;8.516;2022-08-21T08:40:50;101586.00;;;26.27;100.00
37878;BME280;23715;53.652;8.516;2022-08-21T08:45:53;101588.55;;;26.51;100.00
37878;BME280;23715;53.652;8.516;2022-08-21T08:50:56;101588.47;;;26.48;100.00
37878;BME280;23715;53.652;8.516;2022-08-21T08:55:58;101588.10;;;26.77;100.00
37878;BME280;23715;53.652;8.516;2022-08-21T09:01:00;101581.92;;;26.97;100.00
37878;BME280;23715;53.652;8.516;2022-08-21T09:06:17;101573.52;;;26.85;100.00
37878;BME280;23715;53.652;8.516;2022-08-21T09:16:30;101566.38;;;26.71;100.00
37878;BME280;23715;53.652;8.516;2022-08-21T09:21:46;101583.05;;;26.74;100.00
37878;BME280;23715;53.652;8.516;2022-08-21T09:31:53;101572.00;;;26.90;100.00
37878;BME280;23715;53.652;8.516;2022-08-21T09:36:55;101570.93;;;26.75;100.00
37878;BME280;23715;53.652;8.516;2022-08-21T09:42:01;101566.23;;;26.98;100.00
37878;BME280;23715;53.652;8.516;2022-08-21T09:47:03;101565.50;;;27.25;100.00
37878;BME280;23715;53.652;8.516;2022-08-21T09:52:10;101557.66;;;27.56;100.00
37878;BME280;23715;53.652;8.516;2022-08-21T10:02:31;101566.06;;;27.68;100.00
37878;BME280;23715;53.652;8.516;2022-08-21T10:07:32;101568.34;;;27.12;100.00
37878;BME280;23715;53.652;8.516;2022-08-21T10:12:42;101563.75;;;27.74;100.00
37878;BME280;23715;53.652;8.516;2022-08-21T10:17:58;101562.42;;;27.68;100.00
37878;BME280;23715;53.652;8.516;2022-08-21T10:23:11;101562.41;;;27.40;100.00
37878;BME280;23715;53.652;8.516;2022-08-21T10:28:10;101557.02;;;27.79;100.00
37878;BME280;23715;53.652;8.516;2022-08-21T10:38:38;101559.94;;;28.21;100.00
37878;BME280;23715;53.652;8.516;2022-08-21T10:49:07;101556.80;;;28.09;100.00
37878;BME280;23715;53.652;8.516;2022-08-21T10:59:34;101551.52;;;28.56;100.00
37878;BME280;23715;53.652;8.516;2022-08-21T11:09:39;101552.65;;;28.09;100.00
37878;BME280;23715;53.652;8.516;2022-08-21T11:15:03;101557.02;;;27.79;100.00
37878;BME280;23715;53.652;8.516;2022-08-21T11:20:27;101552.63;;;28.27;100.00
37878;BME280;23715;53.652;8.516;2022-08-21T11:25:32;101561.98;;;27.71;100.00
37878;BME280;23715;53.652;8.516;2022-08-21T11:30:38;101566.06;;;27.68;100.00
37878;BME280;23715;53.652;8.516;2022-08-21T11:35:43;101556.36;;;27.50;100.00
37878;BME280;23715;53.652;8.516;2022-08-21T11:41:14;101558.02;;;28.22;100.00
37878;BME280;23715;53.652;8.516;2022-08-21T11:46:20;101563.48;;;28.59;100.00
37878;BME280;23715;53.652;8.516;2022-08-21T11:51:22;101566.24;;;28.19;100.00
37878;BME280;23715;53.652;8.516;2022-08-21T11:56:35;101563.58;;;28.43;100.00
37878;BME280;23715;53.652;8.516;2022-08-21T12:01:39;101564.16;;;28.73;100.00
37878;BME280;23715;53.652;8.516;2022-08-21T12:06:41;101554.80;;;29.07;100.00
37878;BME280;23715;53.652;8.516;2022-08-21T12:11:50;101560.62;;;28.08;98.51
37878;BME280;23715;53.652;8.516;2022-08-21T12:16:51;101568.38;;;27.21;100.00
37878;BME280;23715;53.652;8.516;2022-08-21T12:21:58;101551.91;;;28.41;100.00
37878;BME280;23715;53.652;8.516;2022-08-21T12:26:58;101548.20;;;27.36;100.00
37878;BME280;23715;53.652;8.516;2022-08-21T12:32:02;101533.36;;;28.81;99.87
37878;BME280;23715;53.652;8.516;2022-08-21T12:37:15;101538.90;;;28.81;98.14
37878;BME280;23715;53.652;8.516;2022-08-21T12:42:24;101540.33;;;27.49;100.00
37878;BME280;23715;53.652;8.516;2022-08-21T12:52:41;101549.53;;;29.64;96.12
37878;BME280;23715;53.652;8.516;2022-08-21T12:57:36;101554.34;;;29.00;91.40
37878;BME280;23715;53.652;8.516;2022-08-21T13:02:42;101542.64;;;28.87;92.90
37878;BME280;23715;53.652;8.516;2022-08-21T13:07:44;101556.25;;;28.00;94.81
37878;BME280;23715;53.652;8.516;2022-08-21T13:12:44;101543.58;;;28.20;93.06
37878;BME280;23715;53.652;8.516;2022-08-21T13:17:48;101542.92;;;29.18;89.00
37878;BME280;23715;53.652;8.516;2022-08-21T13:22:50;101536.47;;;29.15;87.61
37878;BME280;23715;53.652;8.516;2022-08-21T13:28:08;101527.25;;;29.03;87.61
37878;BME280;23715;53.652;8.516;2022-08-21T13:33:13;101533.38;;;28.41;87.93
37878;BME280;23715;53.652;8.516;2022-08-21T13:38:16;101525.63;;;28.92;88.28
37878;BME280;23715;53.652;8.516;2022-08-21T13:43:22;101540.31;;;28.32;85.33
37878;BME280;23715;53.652;8.516;2022-08-21T13:48:27;101530.92;;;28.03;89.36
37878;BME280;23715;53.652;8.516;2022-08-21T13:58:41;101524.55;;;28.93;84.53
37878;BME280;23715;53.652;8.516;2022-08-21T14:03:45;101539.50;;;28.62;100.00
37878;BME280;23715;53.652;8.516;2022-08-21T14:08:41;101530.48;;;27.19;100.00
37878;BME280;23715;53.652;8.516;2022-08-21T14:13:51;101547.34;;;26.95;100.00
37878;BME280;23715;53.652;8.516;2022-08-21T14:24:07;101554.98;;;27.08;100.00
37878;BME280;23715;53.652;8.516;2022-08-21T14:29:08;101572.33;;;26.29;100.00
37878;BME280;23715;53.652;8.516;2022-08-21T14:34:12;101571.25;;;26.53;100.00
37878;BME280;23715;53.652;8.516;2022-08-21T14:39:14;101575.25;;;26.35;100.00
37878;BME280;23715;53.652;8.516;2022-08-21T14:44:17;101583.64;;;26.08;100.00
37878;BME280;23715;53.652;8.516;2022-08-21T14:49:18;101581.61;;;26.58;100.00
37878;BME280;23715;53.652;8.516;2022-08-21T14:54:18;101580.75;;;26.41;100.00
37878;BME280;23715;53.652;8.516;2022-08-21T14:59:18;101587.21;;;26.22;100.00
37878;BME280;23715;53.652;8.516;2022-08-21T15:04:19;101583.05;;;26.74;100.00
37878;BME280;23715;53.652;8.516;2022-08-21T15:09:19;101585.45;;;26.57;100.00
37878;BME280;23715;53.652;8.516;2022-08-21T15:14:23;101592.78;;;26.02;100.00
37878;BME280;23715;53.652;8.516;2022-08-21T15:19:23;101591.95;;;26.76;100.00
37878;BME280;23715;53.652;8.516;2022-08-21T15:24:24;101588.41;;;26.39;100.00
37878;BME280;23715;53.652;8.516;2022-08-21T15:29:25;101595.23;;;25.81;100.00
37878;BME280;23715;53.652;8.516;2022-08-21T15:34:28;101597.58;;;26.26;100.00
37878;BME280;23715;53.652;8.516;2022-08-21T15:39:30;101592.70;;;25.93;100.00
37878;BME280;23715;53.652;8.516;2022-08-21T15:44:31;101596.08;;;25.95;100.00
37878;BME280;23715;53.652;8.516;2022-08-21T15:49:31;101594.33;;;26.43;100.00
37878;BME280;23715;53.652;8.516;2022-08-21T15:54:32;101599.42;;;26.10;100.00
37878;BME280;23715;53.652;8.516;2022-08-21T15:59:36;101588.94;;;26.61;100.00
37878;BME280;23715;53.652;8.516;2022-08-21T16:04:33;101586.29;;;27.12;100.00
37878;BME280;23715;53.652;8.516;2022-08-21T16:09:33;101589.77;;;27.67;100.00
37878;BME280;23715;53.652;8.516;2022-08-21T16:14:34;101590.96;;;26.95;100.00
37878;BME280;23715;53.652;8.516;2022-08-21T16:19:36;101594.89;;;26.97;100.00
37878;BME280;23715;53.652;8.516;2022-08-21T16:24:38;101616.73;;;26.82;100.00
37878;BME280;23715;53.652;8.516;2022-08-21T16:29:39;101613.16;;;26.23;100.00
37878;BME280;23715;53.652;8.516;2022-08-21T16:34:42;101614.97;;;26.49;100.00
37878;BME280;23715;53.652;8.516;2022-08-21T16:39:43;101610.58;;;26.64;100.00
37878;BME280;23715;53.652;8.516;2022-08-21T16:44:44;101602.13;;;27.23;100.00
37878;BME280;23715;53.652;8.516;2022-08-21T16:49:44;101612.29;;;26.65;100.00
37878;BME280;23715;53.652;8.516;2022-08-21T16:54:45;101620.42;;;26.11;100.00
37878;BME280;23715;53.652;8.516;2022-08-21T16:59:45;101615.08;;;26.23;100.00
37878;BME280;23715;53.652;8.516;2022-08-21T17:04:46;101614.39;;;26.63;100.00
37878;BME280;23715;53.652;8.516;2022-08-21T17:09:46;101608.08;;;26.79;100.00
37878;BME280;23715;53.652;8.516;2022-08-21T17:14:47;101612.94;;;26.32;100.00
37878;BME280;23715;53.652;8.516;2022-08-21T17:19:48;101607.63;;;26.59;100.00
37878;BME280;23715;53.652;8.516;2022-08-21T17:24:48;101608.09;;;26.88;100.00
37878;BME280;23715;53.652;8.516;2022-08-21T17:29:49;101610.85;;;26.88;100.00
37878;BME280;23715;53.652;8.516;2022-08-21T17:34:51;101620.80;;;26.28;100.00
37878;BME280;23715;53.652;8.516;2022-08-21T17:39:52;101621.80;;;26.40;100.00
37878;BME280;23715;53.652;8.516;2022-08-21T17:44:52;101623.13;;;26.60;100.00
37878;BME280;23715;53.652;8.516;2022-08-21T17:49:55;101626.92;;;26.82;100.00
37878;BME280;23715;53.652;8.516;2022-08-21T17:54:55;101636.20;;;26.42;100.00
37878;BME280;23715;53.652;8.516;2022-08-21T17:59:56;101639.21;;;26.41;100.00
37878;BME280;23715;53.652;8.516;2022-08-21T18:04:57;101648.95;;;26.43;100.00
37878;BME280;23715;53.652;8.516;2022-08-21T18:09:57;101641.02;;;26.38;100.00
37878;BME280;23715;53.652;8.516;2022-08-21T18:14:59;101644.88;;;26.53;100.00
37878;BME280;23715;53.652;8.516;2022-08-21T18:20:00;101646.57;;;26.24;100.00
37878;BME280;23715;53.652;8.516;2022-08-21T18:25:04;101650.34;;;25.81;100.00
37878;BME280;23715;53.652;8.516;2022-08-21T18:30:05;101647.06;;;26.01;100.00
37878;BME280;23715;53.652;8.516;2022-08-21T18:35:06;101657.44;;;25.46;100.00
37878;BME280;23715;53.652;8.516;2022-08-21T18:40:08;101657.44;;;25.46;100.00
37878;BME280;23715;53.652;8.516;2022-08-21T18:45:11;101658.94;;;25.35;100.00
37878;BME280;23715;53.652;8.516;2022-08-21T18:50:13;101663.91;;;25.49;100.00
37878;BME280;23715;53.652;8.516;2022-08-21T18:55:16;101665.60;;;25.97;100.00
37878;BME280;23715;53.652;8.516;2022-08-21T19:00:21;101672.48;;;25.43;100.00
37878;BME280;23715;53.652;8.516;2022-08-21T19:05:22;101673.13;;;25.99;100.00
37878;BME280;23715;53.652;8.516;2022-08-21T19:10:24;101666.98;;;25.90;100.00
37878;BME280;23715;53.652;8.516;2022-08-21T19:15:26;101677.08;;;25.94;100.00
37878;BME280;23715;53.652;8.516;2022-08-21T19:20:30;101678.85;;;26.10;100.00
37878;BME280;23715;53.652;8.516;2022-08-21T19:25:33;101680.46;;;25.96;100.00
37878;BME280;23715;53.652;8.516;2022-08-21T19:30:36;101684.69;;;26.05;100.00
37878;BME280;23715;53.652;8.516;2022-08-21T19:35:37;101688.89;;;26.14;100.00
37878;BME280;23715;53.652;8.516;2022-08-21T19:40:38;101690.40;;;25.90;100.00
37878;BME280;23715;53.652;8.516;2022-08-21T19:45:40;101679.28;;;25.67;100.00
37878;BME280;23715;53.652;8.516;2022-08-21T19:50:41;101683.79;;;25.24;100.00
37878;BME280;23715;53.652;8.516;2022-08-21T19:55:43;101683.02;;;25.20;100.00
37878;BME280;23715;53.652;8.516;2022-08-21T20:00:43;101688.39;;;25.17;100.00
37878;BME280;23715;53.652;8.516;2022-08-21T20:05:44;101698.95;;;25.31;100.00
37878;BME280;23715;53.652;8.516;2022-08-21T20:10:44;101699.16;;;25.36;100.00
37878;BME280;23715;53.652;8.516;2022-08-21T20:15:45;101703.49;;;25.28;100.00
37878;BME280;23715;53.652;8.516;2022-08-21T20:20:46;101707.73;;;25.24;100.00
37878;BME280;23715;53.652;8.516;2022-08-21T20:25:47;101713.92;;;24.84;100.00
37878;BME280;23715;53.652;8.516;2022-08-21T20:30:47;101717.88;;;24.68;100.00
37878;BME280;23715;53.652;8.516;2022-08-21T20:35:48;101707.22;;;24.52;100.00
37878;BME280;23715;53.652;8.516;2022-08-21T20:40:52;101713.05;;;24.53;100.00
37878;BME280;23715;53.652;8.516;2022-08-21T20:45:53;101700.68;;;24.53;100.00
37878;BME280;23715;53.652;8.516;2022-08-21T20:51:06;101699.62;;;24.26;100.00
37878;BME280;23715;53.652;8.516;2022-08-21T20:56:16;101690.56;;;24.32;100.00
37878;BME280;23715;53.652;8.516;2022-08-21T21:01:11;101706.55;;;24.32;100.00
37878;BME280;23715;53.652;8.516;2022-08-21T21:06:17;101700.34;;;24.52;100.00
37878;BME280;23715;53.652;8.516;2022-08-21T21:11:23;101706.22;;;24.31;100.00
37878;BME280;23715;53.652;8.516;2022-08-21T21:16:29;101707.25;;;24.13;100.00
37878;BME280;23715;53.652;8.516;2022-08-21T21:21:39;101712.66;;;24.00;100.00
37878;BME280;23715;53.652;8.516;2022-08-21T21:26:37;101712.80;;;24.02;100.00
37878;BME280;23715;53.652;8.516;2022-08-21T21:31:37;101712.78;;;23.85;100.00
37878;BME280;23715;53.652;8.516;2022-08-21T21:36:55;101704.77;;;23.90;100.00
37878;BME280;23715;53.652;8.516;2022-08-21T21:42:13;101711.63;;;24.01;100.00
37878;BME280;23715;53.652;8.516;2022-08-21T21:52:56;101714.11;;;23.95;100.00
37878;BME280;23715;53.652;8.516;2022-08-21T22:03:14;101723.96;;;23.83;100.00
37878;BME280;23715;53.652;8.516;2022-08-21T22:14:01;101748.61;;;23.08;100.00
37878;BME280;23715;53.652;8.516;2022-08-21T22:24:28;101743.71;;;23.14;100.00
37878;BME280;23715;53.652;8.516;2022-08-21T22:29:25;101735.63;;;23.27;100.00
37878;BME280;23715;53.652;8.516;2022-08-21T22:34:27;101742.73;;;23.22;100.00
37878;BME280;23715;53.652;8.516;2022-08-21T22:39:35;101739.89;;;23.51;100.00
37878;BME280;23715;53.652;8.516;2022-08-21T22:44:45;101737.16;;;23.84;100.00
37878;BME280;23715;53.652;8.516;2022-08-21T22:49:45;101739.03;;;23.94;100.00
37878;BME280;23715;53.652;8.516;2022-08-21T22:54:47;101734.33;;;23.55;100.00
37878;BME280;23715;53.652;8.516;2022-08-21T23:00:07;101732.16;;;23.29;100.00
37878;BME280;23715;53.652;8.516;2022-08-21T23:05:23;101723.80;;;23.48;100.00
37878;BME280;23715;53.652;8.516;2022-08-21T23:10:37;101728.45;;;23.48;100.00
37878;BME280;23715;53.652;8.516;2022-08-21T23:15:54;101736.62;;;23.63;100.00
37878;BME280;23715;53.652;8.516;2022-08-21T23:21:15;101735.45;;;23.72;100.00
37878;BME280;23715;53.652;8.516;2022-08-21T23:26:25;101736.36;;;23.57;100.00
37878;BME280;23715;53.652;8.516;2022-08-21T23:31:53;101747.98;;;23.16;100.00
37878;BME280;23715;53.652;8.516;2022-08-21T23:43:15;101744.42;;;23.12;100.00
37878;BME280;23715;53.652;8.516;2022-08-21T23:48:27;101744.78;;;23.34;100.00
37878;BME280;23715;53.652;8.516;2022-08-21T23:59:00;101748.13;;;23.30;100.00
